sensor_id;sensor_type;location;lat;lon;timestamp;temperature;humidity
2565;DHT22;1292;48.020;7.822;2022-09-29T05:46:00;10.90;99.90
2565;DHT22;1292;48.020;7.822;2022-09-29T05:48:27;10.90;99.90
2565;DHT22;1292;48.020;7.822;2022-09-29T05:50:55;11.00;99.90
2565;DHT22;1292;48.020;7.822;2022-09-29T05:53:22;11.00;99.90
2565;DHT22;1292;48.020;7.822;2022-09-29T05:55:49;11.00;99.90
2565;DHT22;1292;48.020;7.822;2022-09-29T05:58:16;10.90;99.90
2565;DHT22;1292;48.020;7.822;2022-09-29T06:00:43;10.90;99.90
2565;DHT22;1292;48.020;7.822;2022-09-29T06:03:11;10.80;99.90
2565;DHT22;1292;48.020;7.822;2022-09-29T06:05:38;10.80;99.90
2565;DHT22;1292;48.020;7.822;2022-09-29T06:08:06;10.90;99.90
2565;DHT22;1292;48.020;7.822;2022-09-29T06:10:33;10.90;99.90
2565;DHT22;1292;48.020;7.822;2022-09-29T06:13:00;10.80;99.90
2565;DHT22;1292;48.020;7.822;2022-09-29T06:15:27;10.90;99.90
2565;DHT22;1292;48.020;7.822;2022-09-29T06:17:55;11.00;99.90
2565;DHT22;1292;48.020;7.822;2022-09-29T06:20:24;11.00;99.90
2565;DHT22;1292;48.020;7.822;2022-09-29T06:22:52;11.00;99.90
2565;DHT22;1292;48.020;7.822;2022-09-29T06:25:19;11.10;99.90
2565;DHT22;1292;48.020;7.822;2022-09-29T06:27:46;11.10;99.90
2565;DHT22;1292;48.020;7.822;2022-09-29T06:30:14;11.20;99.90
2565;DHT22;1292;48.020;7.822;2022-09-29T06:32:41;11.20;99.90
2565;DHT22;1292;48.020;7.822;2022-09-29T06:35:08;11.20;99.90
2565;DHT22;1292;48.020;7.822;2022-09-29T06:37:54;11.20;99.90
2565;DHT22;1292;48.020;7.822;2022-09-29T06:40:21;11.30;99.90
2565;DHT22;1292;48.020;7.822;2022-09-29T06:42:49;11.30;99.90
2565;DHT22;1292;48.020;7.822;2022-09-29T06:45:16;11.30;99.90
2565;DHT22;1292;48.020;7.822;2022-09-29T06:47:44;11.20;99.90
2565;DHT22;1292;48.020;7.822;2022-09-29T06:50:11;11.20;99.90
2565;DHT22;1292;48.020;7.822;2022-09-29T06:52:37;11.20;99.90
2565;DHT22;1292;48.020;7.822;2022-09-29T06:55:06;11.30;99.90
2565;DHT22;1292;48.020;7.822;2022-09-29T06:57:33;11.40;99.90
2565;DHT22;1292;48.020;7.822;2022-09-29T07:00:02;11.40;99.90
2565;DHT22;1292;48.020;7.822;2022-09-29T07:02:29;11.50;99.90
2565;DHT22;1292;48.020;7.822;2022-09-29T07:04:56;11.50;99.90
2565;DHT22;1292;48.020;7.822;2022-09-29T07:07:23;11.50;99.90
2565;DHT22;1292;48.020;7.822;2022-09-29T07:09:49;11.50;99.90
2565;DHT22;1292;48.020;7.822;2022-09-29T07:12:17;11.40;99.90
2565;DHT22;1292;48.020;7.822;2022-09-29T07:14:44;11.30;99.90
2565;DHT22;1292;48.020;7.822;2022-09-29T07:17:11;11.30;99.90
2565;DHT22;1292;48.020;7.822;2022-09-29T07:19:39;11.40;99.90
2565;DHT22;1292;48.020;7.822;2022-09-29T07:22:05;11.50;99.90
2565;DHT22;1292;48.020;7.822;2022-09-29T07:24:34;11.40;99.90
2565;DHT22;1292;48.020;7.822;2022-09-29T07:27:01;11.40;99.90
2565;DHT22;1292;48.020;7.822;2022-09-29T07:29:29;11.50;99.90
2565;DHT22;1292;48.020;7.822;2022-09-29T07:31:57;11.60;99.90
2565;DHT22;1292;48.020;7.822;2022-09-29T07:34:24;11.60;99.90
2565;DHT22;1292;48.020;7.822;2022-09-29T07:36:51;11.50;99.90
2565;DHT22;1292;48.020;7.822;2022-09-29T07:39:19;11.60;99.90
2565;DHT22;1292;48.020;7.822;2022-09-29T07:41:47;11.70;99.90
2565;DHT22;1292;48.020;7.822;2022-09-29T07:44:13;11.70;99.90
2565;DHT22;1292;48.020;7.822;2022-09-29T07:46:42;11.80;99.90
2565;DHT22;1292;48.020;7.822;2022-09-29T07:49:08;11.80;99.90
2565;DHT22;1292;48.020;7.822;2022-09-29T07:51:35;11.90;99.90
2565;DHT22;1292;48.020;7.822;2022-09-29T07:54:03;12.00;99.90
2565;DHT22;1292;48.020;7.822;2022-09-29T07:56:30;12.10;99.90
2565;DHT22;1292;48.020;7.822;2022-09-29T07:58:57;12.10;99.90
2565;DHT22;1292;48.020;7.822;2022-09-29T08:01:25;12.10;99.90
2565;DHT22;1292;48.020;7.822;2022-09-29T08:03:54;12.20;99.90
2565;DHT22;1292;48.020;7.822;2022-09-29T08:06:22;12.20;99.90
2565;DHT22;1292;48.020;7.822;2022-09-29T08:08:50;12.30;99.90
2565;DHT22;1292;48.020;7.822;2022-09-29T08:11:19;12.20;99.90
2565;DHT22;1292;48.020;7.822;2022-09-29T08:13:46;12.10;99.90
2565;DHT22;1292;48.020;7.822;2022-09-29T08:16:14;12.20;99.90
2565;DHT22;1292;48.020;7.822;2022-09-29T08:18:41;12.30;99.90
2565;DHT22;1292;48.020;7.822;2022-09-29T08:21:10;12.40;99.90
2565;DHT22;1292;48.020;7.822;2022-09-29T08:23:39;12.40;99.90
2565;DHT22;1292;48.020;7.822;2022-09-29T08:26:08;12.40;99.90
2565;DHT22;1292;48.020;7.822;2022-09-29T08:28:36;12.40;99.90
2565;DHT22;1292;48.020;7.822;2022-09-29T08:31:04;12.50;99.90
2565;DHT22;1292;48.020;7.822;2022-09-29T08:33:32;12.50;99.90
2565;DHT22;1292;48.020;7.822;2022-09-29T08:36:00;12.40;99.90
2565;DHT22;1292;48.020;7.822;2022-09-29T08:38:30;12.50;99.90
2565;DHT22;1292;48.020;7.822;2022-09-29T08:41:02;12.50;99.90
2565;DHT22;1292;48.020;7.822;2022-09-29T08:43:31;12.40;99.90
2565;DHT22;1292;48.020;7.822;2022-09-29T08:46:05;12.40;99.90
2565;DHT22;1292;48.020;7.822;2022-09-29T08:48:36;12.50;99.90
2565;DHT22;1292;48.020;7.822;2022-09-29T08:51:11;12.60;99.90
2565;DHT22;1292;48.020;7.822;2022-09-29T08:53:45;12.70;99.90
2565;DHT22;1292;48.020;7.822;2022-09-29T08:56:14;12.70;99.90
2565;DHT22;1292;48.020;7.822;2022-09-29T08:58:42;12.70;99.90
2565;DHT22;1292;48.020;7.822;2022-09-29T09:01:17;12.70;99.90
2565;DHT22;1292;48.020;7.822;2022-09-29T09:04:08;12.80;99.90
2565;DHT22;1292;48.020;7.822;2022-09-29T09:06:52;12.90;99.90
2565;DHT22;1292;48.020;7.822;2022-09-29T09:09:52;13.00;99.90
2565;DHT22;1292;48.020;7.822;2022-09-29T09:12:44;13.00;99.90
2565;DHT22;1292;48.020;7.822;2022-09-29T09:15:21;13.00;99.90
2565;DHT22;1292;48.020;7.822;2022-09-29T09:18:06;13.10;99.90
2565;DHT22;1292;48.020;7.822;2022-09-29T09:20:43;13.00;99.90
2565;DHT22;1292;48.020;7.822;2022-09-29T09:23:16;13.00;99.90
2565;DHT22;1292;48.020;7.822;2022-09-29T09:25:49;13.00;99.90
2565;DHT22;1292;48.020;7.822;2022-09-29T09:28:19;13.10;99.90
2565;DHT22;1292;48.020;7.822;2022-09-29T09:30:50;13.10;99.90
2565;DHT22;1292;48.020;7.822;2022-09-29T09:33:25;13.00;99.90
2565;DHT22;1292;48.020;7.822;2022-09-29T09:35:59;13.00;99.90
2565;DHT22;1292;48.020;7.822;2022-09-29T09:38:43;13.10;99.90
2565;DHT22;1292;48.020;7.822;2022-09-29T09:41:14;13.00;99.90
2565;DHT22;1292;48.020;7.822;2022-09-29T09:43:44;13.10;99.90
2565;DHT22;1292;48.020;7.822;2022-09-29T09:46:17;13.20;99.90
2565;DHT22;1292;48.020;7.822;2022-09-29T09:48:51;13.30;99.90
2565;DHT22;1292;48.020;7.822;2022-09-29T09:51:32;13.50;99.90
2565;DHT22;1292;48.020;7.822;2022-09-29T09:54:03;13.30;99.90
2565;DHT22;1292;48.020;7.822;2022-09-29T09:56:49;13.30;99.90
2565;DHT22;1292;48.020;7.822;2022-09-29T09:59:32;13.30;99.90
2565;DHT22;1292;48.020;7.822;2022-09-29T10:02:01;13.40;99.90
2565;DHT22;1292;48.020;7.822;2022-09-29T10:04:28;13.50;99.90
2565;DHT22;1292;48.020;7.822;2022-09-29T10:06:56;13.60;99.90
2565;DHT22;1292;48.020;7.822;2022-09-29T10:09:22;13.60;99.90
2565;DHT22;1292;48.020;7.822;2022-09-29T10:11:51;13.40;99.90
2565;DHT22;1292;48.020;7.822;2022-09-29T10:14:21;13.10;99.90
2565;DHT22;1292;48.020;7.822;2022-09-29T10:16:55;13.30;99.90
2565;DHT22;1292;48.020;7.822;2022-09-29T10:19:54;13.50;99.90
2565;DHT22;1292;48.020;7.822;2022-09-29T10:22:22;13.70;99.90
2565;DHT22;1292;48.020;7.822;2022-09-29T10:24:51;13.80;99.90
2565;DHT22;1292;48.020;7.822;2022-09-29T10:27:23;13.90;99.90
2565;DHT22;1292;48.020;7.822;2022-09-29T10:29:51;13.90;99.90
2565;DHT22;1292;48.020;7.822;2022-09-29T10:32:25;13.90;99.90
2565;DHT22;1292;48.020;7.822;2022-09-29T10:35:05;13.90;99.90
2565;DHT22;1292;48.020;7.822;2022-09-29T10:37:36;14.00;99.90
2565;DHT22;1292;48.020;7.822;2022-09-29T10:40:14;14.10;99.90
2565;DHT22;1292;48.020;7.822;2022-09-29T10:42:45;14.20;99.90
2565;DHT22;1292;48.020;7.822;2022-09-29T10:45:15;14.10;99.90
2565;DHT22;1292;48.020;7.822;2022-09-29T10:47:45;14.10;99.90
2565;DHT22;1292;48.020;7.822;2022-09-29T10:50:16;14.20;99.90
2565;DHT22;1292;48.020;7.822;2022-09-29T10:52:46;14.30;99.90
2565;DHT22;1292;48.020;7.822;2022-09-29T10:55:17;14.40;99.90
2565;DHT22;1292;48.020;7.822;2022-09-29T10:57:46;14.30;99.90
2565;DHT22;1292;48.020;7.822;2022-09-29T11:00:28;14.30;99.90
2565;DHT22;1292;48.020;7.822;2022-09-29T11:03:03;14.20;99.90
2565;DHT22;1292;48.020;7.822;2022-09-29T11:05:32;14.00;99.90
2565;DHT22;1292;48.020;7.822;2022-09-29T11:08:00;14.00;99.90
2565;DHT22;1292;48.020;7.822;2022-09-29T11:10:29;14.10;99.90
2565;DHT22;1292;48.020;7.822;2022-09-29T11:12:58;14.10;99.90
2565;DHT22;1292;48.020;7.822;2022-09-29T11:15:41;14.10;99.90
2565;DHT22;1292;48.020;7.822;2022-09-29T11:18:18;14.10;99.90
2565;DHT22;1292;48.020;7.822;2022-09-29T11:20:51;14.10;99.90
2565;DHT22;1292;48.020;7.822;2022-09-29T11:23:26;14.10;99.90
2565;DHT22;1292;48.020;7.822;2022-09-29T11:26:08;14.20;99.90
2565;DHT22;1292;48.020;7.822;2022-09-29T11:28:47;14.30;99.90
2565;DHT22;1292;48.020;7.822;2022-09-29T11:31:26;14.30;99.90
2565;DHT22;1292;48.020;7.822;2022-09-29T11:34:03;14.40;99.90
2565;DHT22;1292;48.020;7.822;2022-09-29T11:36:39;14.50;99.90
2565;DHT22;1292;48.020;7.822;2022-09-29T11:39:25;14.50;99.90
2565;DHT22;1292;48.020;7.822;2022-09-29T11:42:02;14.40;99.90
2565;DHT22;1292;48.020;7.822;2022-09-29T11:44:53;14.50;99.90
2565;DHT22;1292;48.020;7.822;2022-09-29T11:47:39;14.50;99.90
2565;DHT22;1292;48.020;7.822;2022-09-29T11:50:20;14.50;99.90
2565;DHT22;1292;48.020;7.822;2022-09-29T11:53:07;14.50;99.90
2565;DHT22;1292;48.020;7.822;2022-09-29T11:55:48;14.60;99.90
2565;DHT22;1292;48.020;7.822;2022-09-29T11:58:27;14.60;99.90
2565;DHT22;1292;48.020;7.822;2022-09-29T12:01:12;14.60;99.90
2565;DHT22;1292;48.020;7.822;2022-09-29T12:03:46;14.60;99.90
2565;DHT22;1292;48.020;7.822;2022-09-29T12:06:34;14.50;99.90
2565;DHT22;1292;48.020;7.822;2022-09-29T12:09:18;14.60;99.90
2565;DHT22;1292;48.020;7.822;2022-09-29T12:11:55;14.70;99.90
2565;DHT22;1292;48.020;7.822;2022-09-29T12:14:32;14.80;99.90
2565;DHT22;1292;48.020;7.822;2022-09-29T12:17:09;14.80;99.90
2565;DHT22;1292;48.020;7.822;2022-09-29T12:19:39;14.80;99.90
2565;DHT22;1292;48.020;7.822;2022-09-29T12:22:08;15.00;99.90
2565;DHT22;1292;48.020;7.822;2022-09-29T12:24:37;15.00;99.90
2565;DHT22;1292;48.020;7.822;2022-09-29T12:27:11;14.80;99.90
2565;DHT22;1292;48.020;7.822;2022-09-29T12:29:42;14.90;99.90
2565;DHT22;1292;48.020;7.822;2022-09-29T12:32:16;14.90;99.90
2565;DHT22;1292;48.020;7.822;2022-09-29T12:34:48;14.80;99.90
2565;DHT22;1292;48.020;7.822;2022-09-29T12:37:24;14.90;99.90
2565;DHT22;1292;48.020;7.822;2022-09-29T12:40:00;14.90;99.90
2565;DHT22;1292;48.020;7.822;2022-09-29T12:42:40;15.00;99.90
2565;DHT22;1292;48.020;7.822;2022-09-29T12:45:14;15.10;99.90
2565;DHT22;1292;48.020;7.822;2022-09-29T12:47:53;15.10;99.90
2565;DHT22;1292;48.020;7.822;2022-09-29T12:50:28;15.20;99.90
2565;DHT22;1292;48.020;7.822;2022-09-29T12:52:59;15.10;99.90
2565;DHT22;1292;48.020;7.822;2022-09-29T12:55:40;15.00;99.90
2565;DHT22;1292;48.020;7.822;2022-09-29T12:58:14;14.90;99.90
2565;DHT22;1292;48.020;7.822;2022-09-29T13:00:50;15.00;99.90
2565;DHT22;1292;48.020;7.822;2022-09-29T13:03:44;15.10;99.90
2565;DHT22;1292;48.020;7.822;2022-09-29T13:06:42;15.10;99.90
2565;DHT22;1292;48.020;7.822;2022-09-29T13:09:51;15.10;99.90
2565;DHT22;1292;48.020;7.822;2022-09-29T13:12:29;15.20;99.90
2565;DHT22;1292;48.020;7.822;2022-09-29T13:15:23;15.20;99.90
2565;DHT22;1292;48.020;7.822;2022-09-29T13:18:09;15.40;99.90
2565;DHT22;1292;48.020;7.822;2022-09-29T13:21:03;15.40;99.90
2565;DHT22;1292;48.020;7.822;2022-09-29T13:23:39;15.30;99.90
2565;DHT22;1292;48.020;7.822;2022-09-29T13:26:26;15.30;99.90
2565;DHT22;1292;48.020;7.822;2022-09-29T13:28:57;15.10;99.90
2565;DHT22;1292;48.020;7.822;2022-09-29T13:31:28;15.20;99.90
2565;DHT22;1292;48.020;7.822;2022-09-29T13:33:59;15.20;99.90
2565;DHT22;1292;48.020;7.822;2022-09-29T13:36:30;15.30;99.90
2565;DHT22;1292;48.020;7.822;2022-09-29T13:39:02;15.00;99.90
2565;DHT22;1292;48.020;7.822;2022-09-29T13:41:35;15.00;99.90
2565;DHT22;1292;48.020;7.822;2022-09-29T13:44:22;15.10;99.90
2565;DHT22;1292;48.020;7.822;2022-09-29T13:46:49;15.20;99.90
2565;DHT22;1292;48.020;7.822;2022-09-29T13:49:31;15.20;99.90
2565;DHT22;1292;48.020;7.822;2022-09-29T13:52:28;15.30;99.90
2565;DHT22;1292;48.020;7.822;2022-09-29T13:54:55;15.40;99.90
2565;DHT22;1292;48.020;7.822;2022-09-29T13:57:50;15.30;99.90
2565;DHT22;1292;48.020;7.822;2022-09-29T14:00:19;15.30;99.90
2565;DHT22;1292;48.020;7.822;2022-09-29T14:03:03;15.20;99.90
2565;DHT22;1292;48.020;7.822;2022-09-29T14:06:04;15.00;99.90
2565;DHT22;1292;48.020;7.822;2022-09-29T14:08:38;15.00;99.90
2565;DHT22;1292;48.020;7.822;2022-09-29T14:11:17;14.90;99.90
2565;DHT22;1292;48.020;7.822;2022-09-29T14:13:51;14.90;99.90
2565;DHT22;1292;48.020;7.822;2022-09-29T14:16:35;15.00;99.90
2565;DHT22;1292;48.020;7.822;2022-09-29T14:19:07;14.90;99.90
2565;DHT22;1292;48.020;7.822;2022-09-29T14:21:49;14.80;99.90
2565;DHT22;1292;48.020;7.822;2022-09-29T14:24:44;14.80;99.90
2565;DHT22;1292;48.020;7.822;2022-09-29T14:27:25;14.90;99.90
2565;DHT22;1292;48.020;7.822;2022-09-29T14:32:45;14.80;99.90
2565;DHT22;1292;48.020;7.822;2022-09-29T14:35:18;14.80;99.90
2565;DHT22;1292;48.020;7.822;2022-09-29T14:37:49;14.90;99.90
2565;DHT22;1292;48.020;7.822;2022-09-29T14:40:19;14.80;99.90
2565;DHT22;1292;48.020;7.822;2022-09-29T14:43:13;14.80;99.90
2565;DHT22;1292;48.020;7.822;2022-09-29T14:49:01;15.00;99.90
2565;DHT22;1292;48.020;7.822;2022-09-29T14:51:54;14.90;99.90
2565;DHT22;1292;48.020;7.822;2022-09-29T14:54:33;14.90;99.90
2565;DHT22;1292;48.020;7.822;2022-09-29T14:57:27;15.00;99.90
2565;DHT22;1292;48.020;7.822;2022-09-29T15:00:04;15.00;99.90
2565;DHT22;1292;48.020;7.822;2022-09-29T15:02:32;15.10;99.90
2565;DHT22;1292;48.020;7.822;2022-09-29T15:05:11;15.10;99.90
2565;DHT22;1292;48.020;7.822;2022-09-29T15:07:39;15.10;99.90
2565;DHT22;1292;48.020;7.822;2022-09-29T15:10:20;15.20;99.90
2565;DHT22;1292;48.020;7.822;2022-09-29T15:12:48;15.20;99.90
2565;DHT22;1292;48.020;7.822;2022-09-29T15:15:37;15.20;99.90
2565;DHT22;1292;48.020;7.822;2022-09-29T15:18:21;15.00;99.90
2565;DHT22;1292;48.020;7.822;2022-09-29T15:20:54;15.00;99.90
2565;DHT22;1292;48.020;7.822;2022-09-29T15:23:44;15.00;99.90
2565;DHT22;1292;48.020;7.822;2022-09-29T15:26:16;15.10;99.90
2565;DHT22;1292;48.020;7.822;2022-09-29T15:28:46;15.10;99.90
2565;DHT22;1292;48.020;7.822;2022-09-29T15:31:16;15.10;99.90
2565;DHT22;1292;48.020;7.822;2022-09-29T15:33:44;15.10;99.90
2565;DHT22;1292;48.020;7.822;2022-09-29T15:36:18;15.10;99.90
2565;DHT22;1292;48.020;7.822;2022-09-29T15:38:47;15.00;99.90
2565;DHT22;1292;48.020;7.822;2022-09-29T15:41:19;15.00;99.90
2565;DHT22;1292;48.020;7.822;2022-09-29T15:43:54;15.00;99.90
2565;DHT22;1292;48.020;7.822;2022-09-29T15:46:23;15.00;99.90
2565;DHT22;1292;48.020;7.822;2022-09-29T15:49:05;15.00;99.90
2565;DHT22;1292;48.020;7.822;2022-09-29T15:51:33;14.90;99.90
2565;DHT22;1292;48.020;7.822;2022-09-29T15:54:01;14.90;99.90
2565;DHT22;1292;48.020;7.822;2022-09-29T15:56:29;14.90;99.90
2565;DHT22;1292;48.020;7.822;2022-09-29T15:58:58;14.90;99.90
2565;DHT22;1292;48.020;7.822;2022-09-29T16:01:27;14.90;99.90
2565;DHT22;1292;48.020;7.822;2022-09-29T16:03:55;14.90;99.90
2565;DHT22;1292;48.020;7.822;2022-09-29T16:06:28;14.80;99.90
2565;DHT22;1292;48.020;7.822;2022-09-29T16:08:58;14.80;99.90
2565;DHT22;1292;48.020;7.822;2022-09-29T16:11:29;14.80;99.90
2565;DHT22;1292;48.020;7.822;2022-09-29T16:14:01;14.80;99.90
2565;DHT22;1292;48.020;7.822;2022-09-29T16:16:32;14.70;99.90
2565;DHT22;1292;48.020;7.822;2022-09-29T16:19:06;14.70;99.90
2565;DHT22;1292;48.020;7.822;2022-09-29T16:21:36;14.70;99.90
2565;DHT22;1292;48.020;7.822;2022-09-29T16:24:21;14.60;99.90
2565;DHT22;1292;48.020;7.822;2022-09-29T16:26:50;14.60;99.90
2565;DHT22;1292;48.020;7.822;2022-09-29T16:29:30;14.50;99.90
2565;DHT22;1292;48.020;7.822;2022-09-29T16:31:59;14.50;99.90
2565;DHT22;1292;48.020;7.822;2022-09-29T16:34:29;14.40;99.90
2565;DHT22;1292;48.020;7.822;2022-09-29T16:36:59;14.40;99.90
2565;DHT22;1292;48.020;7.822;2022-09-29T16:39:28;14.30;99.90
2565;DHT22;1292;48.020;7.822;2022-09-29T16:41:59;14.30;99.90
2565;DHT22;1292;48.020;7.822;2022-09-29T16:44:30;14.30;99.90
2565;DHT22;1292;48.020;7.822;2022-09-29T16:47:00;14.20;99.90
2565;DHT22;1292;48.020;7.822;2022-09-29T16:49:29;14.20;99.90
2565;DHT22;1292;48.020;7.822;2022-09-29T16:51:59;14.20;99.90
2565;DHT22;1292;48.020;7.822;2022-09-29T16:54:29;14.20;99.90
2565;DHT22;1292;48.020;7.822;2022-09-29T16:57:20;14.20;99.90
2565;DHT22;1292;48.020;7.822;2022-09-29T16:59:50;14.20;99.90
2565;DHT22;1292;48.020;7.822;2022-09-29T17:02:17;14.10;99.90
2565;DHT22;1292;48.020;7.822;2022-09-29T17:04:45;14.10;99.90
2565;DHT22;1292;48.020;7.822;2022-09-29T17:07:13;14.10;99.90
2565;DHT22;1292;48.020;7.822;2022-09-29T17:09:43;14.10;99.90
2565;DHT22;1292;48.020;7.822;2022-09-29T17:12:12;14.10;99.90
2565;DHT22;1292;48.020;7.822;2022-09-29T17:14:39;14.10;99.90
2565;DHT22;1292;48.020;7.822;2022-09-29T17:17:13;14.10;99.90
2565;DHT22;1292;48.020;7.822;2022-09-29T17:19:41;14.10;99.90
2565;DHT22;1292;48.020;7.822;2022-09-29T17:22:27;14.10;99.90
2565;DHT22;1292;48.020;7.822;2022-09-29T17:24:54;14.00;99.90
2565;DHT22;1292;48.020;7.822;2022-09-29T17:27:22;14.00;99.90
2565;DHT22;1292;48.020;7.822;2022-09-29T17:30:07;14.00;99.90
2565;DHT22;1292;48.020;7.822;2022-09-29T17:32:35;14.00;99.90
2565;DHT22;1292;48.020;7.822;2022-09-29T17:35:08;14.00;99.90
2565;DHT22;1292;48.020;7.822;2022-09-29T17:37:37;14.00;99.90
2565;DHT22;1292;48.020;7.822;2022-09-29T17:40:15;14.00;99.90
2565;DHT22;1292;48.020;7.822;2022-09-29T17:42:42;13.90;99.90
2565;DHT22;1292;48.020;7.822;2022-09-29T17:45:12;13.90;99.90
2565;DHT22;1292;48.020;7.822;2022-09-29T17:47:42;13.90;99.90
2565;DHT22;1292;48.020;7.822;2022-09-29T17:50:22;13.90;99.90
2565;DHT22;1292;48.020;7.822;2022-09-29T17:52:50;13.90;99.90
2565;DHT22;1292;48.020;7.822;2022-09-29T17:55:17;13.90;99.90
2565;DHT22;1292;48.020;7.822;2022-09-29T17:57:45;13.90;99.90
2565;DHT22;1292;48.020;7.822;2022-09-29T18:00:15;13.80;99.90
2565;DHT22;1292;48.020;7.822;2022-09-29T18:02:47;13.80;99.90
2565;DHT22;1292;48.020;7.822;2022-09-29T18:05:14;13.70;99.90
2565;DHT22;1292;48.020;7.822;2022-09-29T18:07:46;13.70;99.90
2565;DHT22;1292;48.020;7.822;2022-09-29T18:10:18;13.70;99.90
2565;DHT22;1292;48.020;7.822;2022-09-29T18:12:45;13.70;99.90
2565;DHT22;1292;48.020;7.822;2022-09-29T18:15:12;13.60;99.90
2565;DHT22;1292;48.020;7.822;2022-09-29T18:17:40;13.60;99.90
2565;DHT22;1292;48.020;7.822;2022-09-29T18:20:17;13.60;99.90
2565;DHT22;1292;48.020;7.822;2022-09-29T18:22:45;13.60;99.90
2565;DHT22;1292;48.020;7.822;2022-09-29T18:25:12;13.60;99.90
2565;DHT22;1292;48.020;7.822;2022-09-29T18:27:40;13.60;99.90
2565;DHT22;1292;48.020;7.822;2022-09-29T18:30:15;13.60;99.90
2565;DHT22;1292;48.020;7.822;2022-09-29T18:32:45;13.60;99.90
2565;DHT22;1292;48.020;7.822;2022-09-29T18:35:16;13.50;99.90
2565;DHT22;1292;48.020;7.822;2022-09-29T18:37:43;13.60;99.90
2565;DHT22;1292;48.020;7.822;2022-09-29T18:40:10;13.50;99.90
2565;DHT22;1292;48.020;7.822;2022-09-29T18:42:41;13.50;99.90
2565;DHT22;1292;48.020;7.822;2022-09-29T18:45:10;13.50;99.90
2565;DHT22;1292;48.020;7.822;2022-09-29T18:47:40;13.50;99.90
2565;DHT22;1292;48.020;7.822;2022-09-29T18:50:12;13.50;99.90
2565;DHT22;1292;48.020;7.822;2022-09-29T18:52:40;13.50;99.90
2565;DHT22;1292;48.020;7.822;2022-09-29T18:55:08;13.40;99.90
2565;DHT22;1292;48.020;7.822;2022-09-29T18:57:35;13.40;99.90
2565;DHT22;1292;48.020;7.822;2022-09-29T19:00:04;13.40;99.90
2565;DHT22;1292;48.020;7.822;2022-09-29T19:02:35;13.40;99.90
2565;DHT22;1292;48.020;7.822;2022-09-29T19:05:02;13.40;99.90
2565;DHT22;1292;48.020;7.822;2022-09-29T19:07:29;13.40;99.90
2565;DHT22;1292;48.020;7.822;2022-09-29T19:09:57;13.40;99.90
2565;DHT22;1292;48.020;7.822;2022-09-29T19:12:24;13.30;99.90
2565;DHT22;1292;48.020;7.822;2022-09-29T19:14:54;13.30;99.90
2565;DHT22;1292;48.020;7.822;2022-09-29T19:17:23;13.30;99.90
2565;DHT22;1292;48.020;7.822;2022-09-29T19:19:50;13.20;99.90
2565;DHT22;1292;48.020;7.822;2022-09-29T19:22:17;13.20;99.90
2565;DHT22;1292;48.020;7.822;2022-09-29T19:24:44;13.10;99.90
2565;DHT22;1292;48.020;7.822;2022-09-29T19:27:13;12.90;99.90
2565;DHT22;1292;48.020;7.822;2022-09-29T19:29:39;12.80;99.90
2565;DHT22;1292;48.020;7.822;2022-09-29T19:32:06;12.70;99.90
2565;DHT22;1292;48.020;7.822;2022-09-29T19:34:33;12.70;99.90
2565;DHT22;1292;48.020;7.822;2022-09-29T19:37:00;12.60;99.90
2565;DHT22;1292;48.020;7.822;2022-09-29T19:39:27;12.50;99.90
2565;DHT22;1292;48.020;7.822;2022-09-29T19:41:56;12.40;99.90
2565;DHT22;1292;48.020;7.822;2022-09-29T19:44:24;12.30;99.90
2565;DHT22;1292;48.020;7.822;2022-09-29T19:46:53;12.20;99.90
2565;DHT22;1292;48.020;7.822;2022-09-29T19:49:20;12.20;99.90
2565;DHT22;1292;48.020;7.822;2022-09-29T19:51:47;12.10;99.90
2565;DHT22;1292;48.020;7.822;2022-09-29T19:54:19;12.20;99.90
2565;DHT22;1292;48.020;7.822;2022-09-29T19:56:48;12.20;99.90
2565;DHT22;1292;48.020;7.822;2022-09-29T19:59:17;12.10;99.90
2565;DHT22;1292;48.020;7.822;2022-09-29T20:01:46;12.10;99.90
2565;DHT22;1292;48.020;7.822;2022-09-29T20:04:14;12.10;99.90
2565;DHT22;1292;48.020;7.822;2022-09-29T20:06:42;12.10;99.90
2565;DHT22;1292;48.020;7.822;2022-09-29T20:09:11;12.10;99.90
2565;DHT22;1292;48.020;7.822;2022-09-29T20:11:38;12.10;99.90
2565;DHT22;1292;48.020;7.822;2022-09-29T20:14:07;12.10;99.90
2565;DHT22;1292;48.020;7.822;2022-09-29T20:16:37;12.10;99.90
2565;DHT22;1292;48.020;7.822;2022-09-29T20:19:08;12.00;99.90
2565;DHT22;1292;48.020;7.822;2022-09-29T20:21:36;12.10;99.90
2565;DHT22;1292;48.020;7.822;2022-09-29T20:24:05;12.00;99.90
2565;DHT22;1292;48.020;7.822;2022-09-29T20:26:32;12.00;99.90
2565;DHT22;1292;48.020;7.822;2022-09-29T20:28:59;12.00;99.90
2565;DHT22;1292;48.020;7.822;2022-09-29T20:31:26;12.00;99.90
2565;DHT22;1292;48.020;7.822;2022-09-29T20:33:54;12.00;99.90
2565;DHT22;1292;48.020;7.822;2022-09-29T20:36:22;12.10;99.90
2565;DHT22;1292;48.020;7.822;2022-09-29T20:38:49;12.20;99.90
2565;DHT22;1292;48.020;7.822;2022-09-29T20:41:16;12.20;99.90
2565;DHT22;1292;48.020;7.822;2022-09-29T20:43:46;12.20;99.90
2565;DHT22;1292;48.020;7.822;2022-09-29T20:46:14;12.20;99.90
2565;DHT22;1292;48.020;7.822;2022-09-29T20:48:41;12.30;99.90
2565;DHT22;1292;48.020;7.822;2022-09-29T20:51:10;12.30;99.90
2565;DHT22;1292;48.020;7.822;2022-09-29T20:53:42;12.20;99.90
2565;DHT22;1292;48.020;7.822;2022-09-29T20:56:10;12.20;99.90
2565;DHT22;1292;48.020;7.822;2022-09-29T20:58:41;12.00;99.90
